Kirby, Texas
Current Conditions -  °F | °C
As of 4:51 PM on Wednesday 22 Oct 2014 (Local Time) from KSAT Reporting Station
Broken Clouds Broken Clouds  
Wind Chill: 84°   Ceiling: 11000
Heat Index: 84°   Visibility: 10mi
Dew Point: 53°   Wind: 6mph
Humidity: 34%   Direction: 120°ESE
Pressure: 30.03"   Gusts: NA
Location:  29.4397°N, 98.3901°W
Report Text: KSAT 222151Z 12005KT 10SM FEW075 BKN110 29/12 A3003 RMK AO2 SLP151 T02890117
Loading
Personal Weather Stations






























Interactive Weather Map
Tropical Storm Tracking
New forecast layout! Learn more

10-Day Weather Forecast

Advertisements
Track Severe Weather on mobile